Terminal Aerodrome Forecast
Issued by NWS Cleveland, OH

Home | Current Version | Previous Version | Text Only | Print | Product List | Glossary On
Versions: 1 2 3 4 5 6 7 8 9 10 11 12 13 14 15 16 17 18 19 20 21
000
FTUS41 KCLE 012300
TAFMFD
TAF
KMFD 012330Z 0200/0224 21010KT P6SM SCT060 BKN250
     FM021000 21006KT 5SM -RA BR OVC025
     FM021300 24006KT 3SM RA BR OVC006
     FM021700 27008KT P6SM BKN010 OVC080
     FM021900 27008KT P6SM SCT025 BKN080
     FM022300 27004KT P6SM SCT080 BKN250=

USA.gov is the U.S. government's official web portal to all federal, state and local government web resources and services.